sensor_id;sensor_type;location;lat;lon;timestamp;P1;durP1;ratioP1;P2;durP2;ratioP2
21162;SDS011;10739;52.198;20.908;2022-11-12T00:00:52;30.05;;;17.48;;
21162;SDS011;10739;52.198;20.908;2022-11-12T00:03:19;32.53;;;18.67;;
21162;SDS011;10739;52.198;20.908;2022-11-12T00:05:47;26.55;;;18.05;;
21162;SDS011;10739;52.198;20.908;2022-11-12T00:08:15;29.98;;;17.65;;
21162;SDS011;10739;52.198;20.908;2022-11-12T00:10:42;27.05;;;17.60;;
21162;SDS011;10739;52.198;20.908;2022-11-12T00:13:09;32.40;;;17.52;;
21162;SDS011;10739;52.198;20.908;2022-11-12T00:15:36;31.88;;;17.75;;
21162;SDS011;10739;52.198;20.908;2022-11-12T00:18:02;31.10;;;16.83;;
21162;SDS011;10739;52.198;20.908;2022-11-12T00:20:28;29.55;;;17.23;;
21162;SDS011;10739;52.198;20.908;2022-11-12T00:22:55;25.65;;;16.65;;
21162;SDS011;10739;52.198;20.908;2022-11-12T00:25:21;29.90;;;17.27;;
21162;SDS011;10739;52.198;20.908;2022-11-12T00:27:47;29.67;;;17.27;;
21162;SDS011;10739;52.198;20.908;2022-11-12T00:30:14;29.13;;;17.48;;
21162;SDS011;10739;52.198;20.908;2022-11-12T00:32:41;25.58;;;16.13;;
21162;SDS011;10739;52.198;20.908;2022-11-12T00:35:07;30.13;;;17.80;;
21162;SDS011;10739;52.198;20.908;2022-11-12T00:37:34;24.85;;;16.52;;
21162;SDS011;10739;52.198;20.908;2022-11-12T00:40:00;29.35;;;18.60;;
21162;SDS011;10739;52.198;20.908;2022-11-12T00:42:26;31.88;;;17.30;;
21162;SDS011;10739;52.198;20.908;2022-11-12T00:44:53;31.70;;;17.15;;
21162;SDS011;10739;52.198;20.908;2022-11-12T00:47:19;28.65;;;18.00;;
21162;SDS011;10739;52.198;20.908;2022-11-12T00:49:45;28.27;;;17.25;;
21162;SDS011;10739;52.198;20.908;2022-11-12T00:52:12;35.33;;;18.60;;
21162;SDS011;10739;52.198;20.908;2022-11-12T00:54:38;32.80;;;18.83;;
21162;SDS011;10739;52.198;20.908;2022-11-12T00:57:04;25.98;;;18.15;;
21162;SDS011;10739;52.198;20.908;2022-11-12T00:59:30;26.27;;;18.92;;
21162;SDS011;10739;52.198;20.908;2022-11-12T01:01:57;30.95;;;17.58;;
21162;SDS011;10739;52.198;20.908;2022-11-12T01:04:23;34.60;;;18.92;;
21162;SDS011;10739;52.198;20.908;2022-11-12T01:06:49;31.98;;;18.38;;
21162;SDS011;10739;52.198;20.908;2022-11-12T01:09:16;28.33;;;18.05;;
21162;SDS011;10739;52.198;20.908;2022-11-12T01:11:43;28.55;;;17.70;;
21162;SDS011;10739;52.198;20.908;2022-11-12T01:14:10;25.50;;;17.33;;
21162;SDS011;10739;52.198;20.908;2022-11-12T01:16:37;32.92;;;18.95;;
21162;SDS011;10739;52.198;20.908;2022-11-12T01:19:06;28.83;;;17.35;;
21162;SDS011;10739;52.198;20.908;2022-11-12T01:21:39;25.02;;;16.40;;
21162;SDS011;10739;52.198;20.908;2022-11-12T01:24:08;27.80;;;17.08;;
21162;SDS011;10739;52.198;20.908;2022-11-12T01:26:35;26.90;;;16.67;;
21162;SDS011;10739;52.198;20.908;2022-11-12T01:29:03;27.65;;;17.75;;
21162;SDS011;10739;52.198;20.908;2022-11-12T01:31:34;31.08;;;16.70;;
21162;SDS011;10739;52.198;20.908;2022-11-12T01:34:03;27.70;;;17.65;;
21162;SDS011;10739;52.198;20.908;2022-11-12T01:36:34;25.35;;;17.92;;
21162;SDS011;10739;52.198;20.908;2022-11-12T01:39:06;25.15;;;16.85;;
21162;SDS011;10739;52.198;20.908;2022-11-12T01:41:34;23.85;;;16.33;;
21162;SDS011;10739;52.198;20.908;2022-11-12T01:47:12;27.10;;;16.23;;
21162;SDS011;10739;52.198;20.908;2022-11-12T01:49:48;31.40;;;16.95;;
21162;SDS011;10739;52.198;20.908;2022-11-12T01:52:42;34.72;;;16.10;;
21162;SDS011;10739;52.198;20.908;2022-11-12T01:55:20;23.00;;;15.48;;
21162;SDS011;10739;52.198;20.908;2022-11-12T01:57:52;25.50;;;16.52;;
21162;SDS011;10739;52.198;20.908;2022-11-12T02:00:35;27.77;;;16.52;;
21162;SDS011;10739;52.198;20.908;2022-11-12T02:03:02;24.15;;;16.67;;
21162;SDS011;10739;52.198;20.908;2022-11-12T02:05:35;24.63;;;16.35;;
21162;SDS011;10739;52.198;20.908;2022-11-12T02:08:04;24.92;;;15.52;;
21162;SDS011;10739;52.198;20.908;2022-11-12T02:10:33;23.08;;;16.83;;
21162;SDS011;10739;52.198;20.908;2022-11-12T02:12:59;25.90;;;16.80;;
21162;SDS011;10739;52.198;20.908;2022-11-12T02:15:45;29.95;;;17.50;;
21162;SDS011;10739;52.198;20.908;2022-11-12T02:18:11;25.42;;;16.55;;
21162;SDS011;10739;52.198;20.908;2022-11-12T02:20:38;25.58;;;17.30;;
21162;SDS011;10739;52.198;20.908;2022-11-12T02:23:07;27.52;;;16.42;;
21162;SDS011;10739;52.198;20.908;2022-11-12T02:25:34;24.08;;;16.17;;
21162;SDS011;10739;52.198;20.908;2022-11-12T02:28:04;26.08;;;16.40;;
21162;SDS011;10739;52.198;20.908;2022-11-12T02:30:35;26.80;;;16.63;;
21162;SDS011;10739;52.198;20.908;2022-11-12T02:33:05;25.60;;;16.42;;
21162;SDS011;10739;52.198;20.908;2022-11-12T02:35:31;26.90;;;17.20;;
21162;SDS011;10739;52.198;20.908;2022-11-12T02:37:58;22.67;;;15.82;;
21162;SDS011;10739;52.198;20.908;2022-11-12T02:40:24;26.42;;;16.65;;
21162;SDS011;10739;52.198;20.908;2022-11-12T02:42:51;24.70;;;16.25;;
21162;SDS011;10739;52.198;20.908;2022-11-12T02:45:17;19.35;;;15.63;;
21162;SDS011;10739;52.198;20.908;2022-11-12T02:47:47;26.83;;;16.83;;
21162;SDS011;10739;52.198;20.908;2022-11-12T02:50:13;30.52;;;16.60;;
21162;SDS011;10739;52.198;20.908;2022-11-12T02:52:40;25.20;;;16.02;;
21162;SDS011;10739;52.198;20.908;2022-11-12T02:55:07;21.63;;;15.77;;
21162;SDS011;10739;52.198;20.908;2022-11-12T02:57:36;24.08;;;16.63;;
21162;SDS011;10739;52.198;20.908;2022-11-12T03:00:04;29.25;;;17.08;;
21162;SDS011;10739;52.198;20.908;2022-11-12T03:02:37;27.38;;;15.93;;
21162;SDS011;10739;52.198;20.908;2022-11-12T03:05:24;24.30;;;16.02;;
21162;SDS011;10739;52.198;20.908;2022-11-12T03:08:02;24.17;;;16.77;;
21162;SDS011;10739;52.198;20.908;2022-11-12T03:10:31;24.98;;;16.88;;
21162;SDS011;10739;52.198;20.908;2022-11-12T03:12:59;26.23;;;15.88;;
21162;SDS011;10739;52.198;20.908;2022-11-12T03:15:26;28.92;;;17.27;;
21162;SDS011;10739;52.198;20.908;2022-11-12T03:17:55;24.70;;;15.77;;
21162;SDS011;10739;52.198;20.908;2022-11-12T03:20:23;24.88;;;15.77;;
21162;SDS011;10739;52.198;20.908;2022-11-12T03:22:59;24.38;;;15.60;;
21162;SDS011;10739;52.198;20.908;2022-11-12T03:25:31;27.40;;;16.17;;
21162;SDS011;10739;52.198;20.908;2022-11-12T03:27:58;24.35;;;15.90;;
21162;SDS011;10739;52.198;20.908;2022-11-12T03:30:34;28.10;;;15.88;;
21162;SDS011;10739;52.198;20.908;2022-11-12T03:33:04;24.88;;;14.90;;
21162;SDS011;10739;52.198;20.908;2022-11-12T03:35:33;28.25;;;15.60;;
21162;SDS011;10739;52.198;20.908;2022-11-12T03:38:00;27.50;;;15.85;;
21162;SDS011;10739;52.198;20.908;2022-11-12T03:40:27;33.13;;;15.98;;
21162;SDS011;10739;52.198;20.908;2022-11-12T03:42:54;25.67;;;15.57;;
21162;SDS011;10739;52.198;20.908;2022-11-12T03:45:22;26.38;;;15.52;;
21162;SDS011;10739;52.198;20.908;2022-11-12T03:47:51;23.88;;;14.93;;
21162;SDS011;10739;52.198;20.908;2022-11-12T03:50:22;28.67;;;14.82;;
21162;SDS011;10739;52.198;20.908;2022-11-12T03:52:54;28.77;;;15.45;;
21162;SDS011;10739;52.198;20.908;2022-11-12T03:55:24;30.45;;;15.95;;
21162;SDS011;10739;52.198;20.908;2022-11-12T03:57:53;25.17;;;15.27;;
21162;SDS011;10739;52.198;20.908;2022-11-12T04:00:20;30.63;;;15.32;;
21162;SDS011;10739;52.198;20.908;2022-11-12T04:02:49;22.45;;;14.98;;
21162;SDS011;10739;52.198;20.908;2022-11-12T04:05:15;25.77;;;14.60;;
21162;SDS011;10739;52.198;20.908;2022-11-12T04:08:02;22.75;;;14.30;;
21162;SDS011;10739;52.198;20.908;2022-11-12T04:10:58;28.08;;;14.30;;
21162;SDS011;10739;52.198;20.908;2022-11-12T04:13:25;28.83;;;14.63;;
21162;SDS011;10739;52.198;20.908;2022-11-12T04:16:13;27.60;;;14.70;;
21162;SDS011;10739;52.198;20.908;2022-11-12T04:19:00;28.38;;;15.43;;
21162;SDS011;10739;52.198;20.908;2022-11-12T04:21:48;23.50;;;14.60;;
21162;SDS011;10739;52.198;20.908;2022-11-12T04:24:21;27.83;;;14.57;;
21162;SDS011;10739;52.198;20.908;2022-11-12T04:29:58;22.95;;;13.82;;
21162;SDS011;10739;52.198;20.908;2022-11-12T04:32:47;27.63;;;13.52;;
21162;SDS011;10739;52.198;20.908;2022-11-12T04:35:19;26.60;;;15.13;;
21162;SDS011;10739;52.198;20.908;2022-11-12T04:37:47;25.30;;;15.18;;
21162;SDS011;10739;52.198;20.908;2022-11-12T04:40:24;30.38;;;16.10;;
21162;SDS011;10739;52.198;20.908;2022-11-12T04:43:12;25.80;;;15.95;;
21162;SDS011;10739;52.198;20.908;2022-11-12T04:45:59;35.90;;;18.75;;
21162;SDS011;10739;52.198;20.908;2022-11-12T04:48:28;33.58;;;20.15;;
21162;SDS011;10739;52.198;20.908;2022-11-12T04:50:56;32.88;;;17.58;;
21162;SDS011;10739;52.198;20.908;2022-11-12T04:53:26;30.30;;;18.83;;
21162;SDS011;10739;52.198;20.908;2022-11-12T04:55:55;33.13;;;19.48;;
21162;SDS011;10739;52.198;20.908;2022-11-12T04:58:23;33.47;;;18.00;;
21162;SDS011;10739;52.198;20.908;2022-11-12T05:00:50;34.50;;;20.38;;
21162;SDS011;10739;52.198;20.908;2022-11-12T05:03:16;29.88;;;18.20;;
21162;SDS011;10739;52.198;20.908;2022-11-12T05:05:43;31.50;;;18.77;;
21162;SDS011;10739;52.198;20.908;2022-11-12T05:08:09;30.27;;;19.15;;
21162;SDS011;10739;52.198;20.908;2022-11-12T05:10:35;31.67;;;19.40;;
21162;SDS011;10739;52.198;20.908;2022-11-12T05:13:02;32.05;;;19.38;;
21162;SDS011;10739;52.198;20.908;2022-11-12T05:15:28;32.38;;;20.55;;
21162;SDS011;10739;52.198;20.908;2022-11-12T05:17:55;34.13;;;20.38;;
21162;SDS011;10739;52.198;20.908;2022-11-12T05:20:21;33.65;;;18.92;;
21162;SDS011;10739;52.198;20.908;2022-11-12T05:22:47;33.47;;;20.42;;
21162;SDS011;10739;52.198;20.908;2022-11-12T05:25:13;34.30;;;20.42;;
21162;SDS011;10739;52.198;20.908;2022-11-12T05:27:39;34.42;;;20.20;;
21162;SDS011;10739;52.198;20.908;2022-11-12T05:30:06;29.80;;;19.45;;
21162;SDS011;10739;52.198;20.908;2022-11-12T05:32:33;36.08;;;19.75;;
21162;SDS011;10739;52.198;20.908;2022-11-12T05:34:59;34.13;;;19.33;;
21162;SDS011;10739;52.198;20.908;2022-11-12T05:37:25;30.50;;;18.85;;
21162;SDS011;10739;52.198;20.908;2022-11-12T05:39:51;31.38;;;19.20;;
21162;SDS011;10739;52.198;20.908;2022-11-12T05:42:18;29.33;;;19.92;;
21162;SDS011;10739;52.198;20.908;2022-11-12T05:44:44;32.53;;;20.05;;
21162;SDS011;10739;52.198;20.908;2022-11-12T05:47:10;37.50;;;22.67;;
21162;SDS011;10739;52.198;20.908;2022-11-12T05:49:36;37.00;;;19.45;;
21162;SDS011;10739;52.198;20.908;2022-11-12T05:52:03;35.40;;;20.30;;
21162;SDS011;10739;52.198;20.908;2022-11-12T05:54:29;38.45;;;22.35;;
21162;SDS011;10739;52.198;20.908;2022-11-12T05:56:55;42.30;;;21.92;;
21162;SDS011;10739;52.198;20.908;2022-11-12T05:59:21;40.65;;;22.92;;
21162;SDS011;10739;52.198;20.908;2022-11-12T06:01:48;35.42;;;22.50;;
21162;SDS011;10739;52.198;20.908;2022-11-12T06:04:15;35.28;;;22.48;;
21162;SDS011;10739;52.198;20.908;2022-11-12T06:06:42;39.15;;;23.85;;
21162;SDS011;10739;52.198;20.908;2022-11-12T06:09:09;32.92;;;21.30;;
21162;SDS011;10739;52.198;20.908;2022-11-12T06:11:36;36.17;;;23.60;;
21162;SDS011;10739;52.198;20.908;2022-11-12T06:14:03;36.08;;;24.67;;
21162;SDS011;10739;52.198;20.908;2022-11-12T06:16:30;33.45;;;23.92;;
21162;SDS011;10739;52.198;20.908;2022-11-12T06:18:57;33.13;;;23.25;;
21162;SDS011;10739;52.198;20.908;2022-11-12T06:21:23;39.45;;;25.05;;
21162;SDS011;10739;52.198;20.908;2022-11-12T06:23:53;35.28;;;26.08;;
21162;SDS011;10739;52.198;20.908;2022-11-12T06:26:22;42.10;;;26.23;;
21162;SDS011;10739;52.198;20.908;2022-11-12T06:28:51;40.08;;;25.80;;
21162;SDS011;10739;52.198;20.908;2022-11-12T06:31:18;43.78;;;28.33;;
21162;SDS011;10739;52.198;20.908;2022-11-12T06:33:46;43.72;;;29.27;;
21162;SDS011;10739;52.198;20.908;2022-11-12T06:36:14;49.70;;;30.23;;
21162;SDS011;10739;52.198;20.908;2022-11-12T06:38:43;47.05;;;30.20;;
21162;SDS011;10739;52.198;20.908;2022-11-12T06:41:10;42.13;;;29.08;;
21162;SDS011;10739;52.198;20.908;2022-11-12T06:43:37;43.45;;;28.77;;
21162;SDS011;10739;52.198;20.908;2022-11-12T06:46:06;48.35;;;31.13;;
21162;SDS011;10739;52.198;20.908;2022-11-12T06:48:39;44.85;;;31.52;;
21162;SDS011;10739;52.198;20.908;2022-11-12T06:51:16;52.15;;;31.90;;
21162;SDS011;10739;52.198;20.908;2022-11-12T06:53:44;42.75;;;30.20;;
21162;SDS011;10739;52.198;20.908;2022-11-12T06:56:12;48.60;;;31.55;;
21162;SDS011;10739;52.198;20.908;2022-11-12T06:58:39;46.97;;;31.05;;
21162;SDS011;10739;52.198;20.908;2022-11-12T07:01:08;45.72;;;31.02;;
21162;SDS011;10739;52.198;20.908;2022-11-12T07:03:38;47.65;;;32.20;;
21162;SDS011;10739;52.198;20.908;2022-11-12T07:06:07;57.50;;;33.97;;
21162;SDS011;10739;52.198;20.908;2022-11-12T07:08:42;57.20;;;34.50;;
21162;SDS011;10739;52.198;20.908;2022-11-12T07:11:09;48.53;;;34.25;;
21162;SDS011;10739;52.198;20.908;2022-11-12T07:13:36;51.90;;;33.70;;
21162;SDS011;10739;52.198;20.908;2022-11-12T07:16:03;60.33;;;35.58;;
21162;SDS011;10739;52.198;20.908;2022-11-12T07:18:33;57.50;;;34.53;;
21162;SDS011;10739;52.198;20.908;2022-11-12T07:21:04;50.25;;;32.05;;
21162;SDS011;10739;52.198;20.908;2022-11-12T07:23:36;52.92;;;31.83;;
21162;SDS011;10739;52.198;20.908;2022-11-12T07:26:04;50.60;;;32.03;;
21162;SDS011;10739;52.198;20.908;2022-11-12T07:28:33;49.65;;;30.50;;
21162;SDS011;10739;52.198;20.908;2022-11-12T07:31:03;55.20;;;32.45;;
21162;SDS011;10739;52.198;20.908;2022-11-12T07:36:06;53.10;;;32.85;;
21162;SDS011;10739;52.198;20.908;2022-11-12T07:38:38;53.88;;;33.17;;
21162;SDS011;10739;52.198;20.908;2022-11-12T07:41:09;52.80;;;32.63;;
21162;SDS011;10739;52.198;20.908;2022-11-12T07:43:43;56.97;;;34.70;;
21162;SDS011;10739;52.198;20.908;2022-11-12T07:46:13;58.78;;;34.05;;
21162;SDS011;10739;52.198;20.908;2022-11-12T07:48:42;52.45;;;33.30;;
21162;SDS011;10739;52.198;20.908;2022-11-12T07:51:16;50.95;;;32.85;;
21162;SDS011;10739;52.198;20.908;2022-11-12T07:53:48;47.40;;;32.85;;
21162;SDS011;10739;52.198;20.908;2022-11-12T07:56:20;53.28;;;34.28;;
21162;SDS011;10739;52.198;20.908;2022-11-12T07:58:49;61.45;;;35.00;;
21162;SDS011;10739;52.198;20.908;2022-11-12T08:01:35;55.22;;;34.42;;
21162;SDS011;10739;52.198;20.908;2022-11-12T08:04:07;50.95;;;33.22;;
21162;SDS011;10739;52.198;20.908;2022-11-12T08:06:36;56.22;;;35.10;;
21162;SDS011;10739;52.198;20.908;2022-11-12T08:09:04;55.38;;;34.60;;
21162;SDS011;10739;52.198;20.908;2022-11-12T08:11:32;54.22;;;34.95;;
21162;SDS011;10739;52.198;20.908;2022-11-12T08:13:59;56.33;;;33.85;;
21162;SDS011;10739;52.198;20.908;2022-11-12T08:16:26;52.97;;;34.40;;
21162;SDS011;10739;52.198;20.908;2022-11-12T08:18:53;51.88;;;35.08;;
21162;SDS011;10739;52.198;20.908;2022-11-12T08:21:19;54.88;;;35.15;;
21162;SDS011;10739;52.198;20.908;2022-11-12T08:23:46;53.00;;;34.88;;
21162;SDS011;10739;52.198;20.908;2022-11-12T08:26:13;53.90;;;34.90;;
21162;SDS011;10739;52.198;20.908;2022-11-12T08:28:42;57.50;;;36.35;;
21162;SDS011;10739;52.198;20.908;2022-11-12T08:31:10;60.53;;;38.70;;
21162;SDS011;10739;52.198;20.908;2022-11-12T08:33:39;60.75;;;37.40;;
21162;SDS011;10739;52.198;20.908;2022-11-12T08:36:07;51.65;;;34.35;;
21162;SDS011;10739;52.198;20.908;2022-11-12T08:38:36;51.28;;;33.35;;
21162;SDS011;10739;52.198;20.908;2022-11-12T08:41:07;49.78;;;33.92;;
21162;SDS011;10739;52.198;20.908;2022-11-12T08:43:36;59.58;;;35.85;;
21162;SDS011;10739;52.198;20.908;2022-11-12T08:46:03;53.92;;;35.03;;
21162;SDS011;10739;52.198;20.908;2022-11-12T08:48:30;54.85;;;33.60;;
21162;SDS011;10739;52.198;20.908;2022-11-12T08:51:02;53.45;;;35.10;;
21162;SDS011;10739;52.198;20.908;2022-11-12T08:53:29;62.53;;;34.35;;
21162;SDS011;10739;52.198;20.908;2022-11-12T08:55:57;50.65;;;33.97;;
21162;SDS011;10739;52.198;20.908;2022-11-12T08:58:24;53.03;;;34.30;;
21162;SDS011;10739;52.198;20.908;2022-11-12T09:00:51;53.00;;;34.15;;
21162;SDS011;10739;52.198;20.908;2022-11-12T09:03:19;52.42;;;34.80;;
21162;SDS011;10739;52.198;20.908;2022-11-12T09:05:49;55.72;;;35.15;;
21162;SDS011;10739;52.198;20.908;2022-11-12T09:08:18;56.55;;;35.90;;
21162;SDS011;10739;52.198;20.908;2022-11-12T09:10:47;53.88;;;35.42;;
21162;SDS011;10739;52.198;20.908;2022-11-12T09:13:15;54.17;;;35.10;;
21162;SDS011;10739;52.198;20.908;2022-11-12T09:15:43;61.72;;;37.13;;
21162;SDS011;10739;52.198;20.908;2022-11-12T09:18:14;57.30;;;37.15;;
21162;SDS011;10739;52.198;20.908;2022-11-12T09:20:43;49.28;;;32.45;;
21162;SDS011;10739;52.198;20.908;2022-11-12T09:23:10;53.00;;;35.92;;
21162;SDS011;10739;52.198;20.908;2022-11-12T09:25:39;55.08;;;35.38;;
21162;SDS011;10739;52.198;20.908;2022-11-12T09:30:45;62.30;;;37.13;;
21162;SDS011;10739;52.198;20.908;2022-11-12T09:33:14;60.47;;;37.22;;
21162;SDS011;10739;52.198;20.908;2022-11-12T09:35:49;54.80;;;37.42;;
21162;SDS011;10739;52.198;20.908;2022-11-12T09:38:17;59.53;;;35.58;;
21162;SDS011;10739;52.198;20.908;2022-11-12T09:40:46;55.00;;;37.08;;
21162;SDS011;10739;52.198;20.908;2022-11-12T09:43:21;62.53;;;38.38;;
21162;SDS011;10739;52.198;20.908;2022-11-12T09:45:55;52.88;;;36.08;;
21162;SDS011;10739;52.198;20.908;2022-11-12T09:48:39;55.83;;;36.08;;
21162;SDS011;10739;52.198;20.908;2022-11-12T09:51:15;55.35;;;37.72;;
21162;SDS011;10739;52.198;20.908;2022-11-12T09:56:25;54.05;;;36.95;;
21162;SDS011;10739;52.198;20.908;2022-11-12T09:58:54;56.38;;;37.88;;
21162;SDS011;10739;52.198;20.908;2022-11-12T10:04:33;59.33;;;37.33;;
21162;SDS011;10739;52.198;20.908;2022-11-12T10:22:27;52.40;;;38.45;;
21162;SDS011;10739;52.198;20.908;2022-11-12T10:25:28;59.65;;;39.20;;
21162;SDS011;10739;52.198;20.908;2022-11-12T10:27:57;55.90;;;39.15;;
21162;SDS011;10739;52.198;20.908;2022-11-12T10:30:30;54.35;;;39.72;;
21162;SDS011;10739;52.198;20.908;2022-11-12T10:32:59;54.05;;;38.97;;
21162;SDS011;10739;52.198;20.908;2022-11-12T10:35:27;59.30;;;39.90;;
21162;SDS011;10739;52.198;20.908;2022-11-12T10:37:55;55.17;;;39.50;;
21162;SDS011;10739;52.198;20.908;2022-11-12T10:41:01;62.78;;;38.40;;
21162;SDS011;10739;52.198;20.908;2022-11-12T10:43:22;59.72;;;39.45;;
21162;SDS011;10739;52.198;20.908;2022-11-12T10:45:49;52.20;;;38.08;;
21162;SDS011;10739;52.198;20.908;2022-11-12T10:50:51;50.63;;;35.95;;
21162;SDS011;10739;52.198;20.908;2022-11-12T10:53:38;57.95;;;39.35;;
21162;SDS011;10739;52.198;20.908;2022-11-12T10:56:21;53.28;;;39.30;;
21162;SDS011;10739;52.198;20.908;2022-11-12T10:59:09;53.97;;;38.88;;
21162;SDS011;10739;52.198;20.908;2022-11-12T11:01:43;53.75;;;38.67;;
21162;SDS011;10739;52.198;20.908;2022-11-12T11:04:14;51.15;;;37.92;;
21162;SDS011;10739;52.198;20.908;2022-11-12T11:09:53;55.58;;;38.30;;
21162;SDS011;10739;52.198;20.908;2022-11-12T11:12:29;57.08;;;39.38;;
21162;SDS011;10739;52.198;20.908;2022-11-12T11:15:17;52.97;;;37.83;;
21162;SDS011;10739;52.198;20.908;2022-11-12T11:17:46;50.25;;;38.42;;
21162;SDS011;10739;52.198;20.908;2022-11-12T11:20:23;51.58;;;37.42;;
21162;SDS011;10739;52.198;20.908;2022-11-12T11:23:11;49.60;;;37.90;;
21162;SDS011;10739;52.198;20.908;2022-11-12T11:25:48;57.70;;;38.35;;
21162;SDS011;10739;52.198;20.908;2022-11-12T11:31:21;58.17;;;39.55;;
21162;SDS011;10739;52.198;20.908;2022-11-12T11:37:19;44.63;;;33.53;;
21162;SDS011;10739;52.198;20.908;2022-11-12T11:40:11;47.15;;;33.35;;
21162;SDS011;10739;52.198;20.908;2022-11-12T11:52:01;39.72;;;29.50;;
21162;SDS011;10739;52.198;20.908;2022-11-12T12:07:13;39.22;;;25.83;;
21162;SDS011;10739;52.198;20.908;2022-11-12T12:10:27;33.23;;;23.33;;
21162;SDS011;10739;52.198;20.908;2022-11-12T12:23:51;36.30;;;23.60;;
21162;SDS011;10739;52.198;20.908;2022-11-12T12:35:22;37.15;;;22.65;;
21162;SDS011;10739;52.198;20.908;2022-11-12T12:43:56;26.13;;;18.33;;
21162;SDS011;10739;52.198;20.908;2022-11-12T12:46:28;27.65;;;17.98;;
21162;SDS011;10739;52.198;20.908;2022-11-12T12:49:01;34.20;;;17.60;;
21162;SDS011;10739;52.198;20.908;2022-11-12T12:51:31;27.88;;;19.27;;
21162;SDS011;10739;52.198;20.908;2022-11-12T12:53:59;45.22;;;24.17;;
21162;SDS011;10739;52.198;20.908;2022-11-12T12:58:57;30.95;;;20.02;;
21162;SDS011;10739;52.198;20.908;2022-11-12T13:01:29;27.05;;;19.33;;
21162;SDS011;10739;52.198;20.908;2022-11-12T13:04:03;31.02;;;19.30;;
21162;SDS011;10739;52.198;20.908;2022-11-12T13:30:08;33.75;;;21.83;;
21162;SDS011;10739;52.198;20.908;2022-11-12T13:42:56;40.78;;;25.20;;
21162;SDS011;10739;52.198;20.908;2022-11-12T13:48:46;33.58;;;24.83;;
21162;SDS011;10739;52.198;20.908;2022-11-12T13:51:26;38.15;;;27.17;;
21162;SDS011;10739;52.198;20.908;2022-11-12T13:53:56;42.17;;;27.13;;
21162;SDS011;10739;52.198;20.908;2022-11-12T13:56:27;38.13;;;26.85;;
21162;SDS011;10739;52.198;20.908;2022-11-12T13:59:06;37.78;;;26.55;;
21162;SDS011;10739;52.198;20.908;2022-11-12T14:01:45;43.70;;;26.67;;
21162;SDS011;10739;52.198;20.908;2022-11-12T14:04:14;39.90;;;28.15;;
21162;SDS011;10739;52.198;20.908;2022-11-12T14:06:49;35.78;;;26.75;;
21162;SDS011;10739;52.198;20.908;2022-11-12T14:10:07;39.97;;;28.75;;
21162;SDS011;10739;52.198;20.908;2022-11-12T14:12:58;43.55;;;28.70;;
21162;SDS011;10739;52.198;20.908;2022-11-12T14:16:29;38.55;;;26.25;;
21162;SDS011;10739;52.198;20.908;2022-11-12T14:22:20;36.53;;;28.27;;
21162;SDS011;10739;52.198;20.908;2022-11-12T14:25:13;36.88;;;28.70;;
21162;SDS011;10739;52.198;20.908;2022-11-12T14:27:49;40.75;;;28.58;;
21162;SDS011;10739;52.198;20.908;2022-11-12T14:30:21;41.85;;;27.67;;
21162;SDS011;10739;52.198;20.908;2022-11-12T14:32:52;44.03;;;28.35;;
21162;SDS011;10739;52.198;20.908;2022-11-12T14:37:52;42.97;;;27.70;;
21162;SDS011;10739;52.198;20.908;2022-11-12T14:40:30;34.55;;;26.75;;
21162;SDS011;10739;52.198;20.908;2022-11-12T14:43:02;42.40;;;28.98;;
21162;SDS011;10739;52.198;20.908;2022-11-12T14:45:29;38.08;;;27.75;;
21162;SDS011;10739;52.198;20.908;2022-11-12T14:47:55;40.53;;;27.17;;
21162;SDS011;10739;52.198;20.908;2022-11-12T14:50:24;43.17;;;29.13;;
21162;SDS011;10739;52.198;20.908;2022-11-12T14:52:57;49.47;;;28.90;;
21162;SDS011;10739;52.198;20.908;2022-11-12T14:55:52;39.30;;;27.30;;
21162;SDS011;10739;52.198;20.908;2022-11-12T14:58:20;39.58;;;27.80;;
21162;SDS011;10739;52.198;20.908;2022-11-12T15:00:49;42.05;;;28.25;;
21162;SDS011;10739;52.198;20.908;2022-11-12T15:03:18;39.15;;;26.33;;
21162;SDS011;10739;52.198;20.908;2022-11-12T15:08:28;43.08;;;27.95;;
21162;SDS011;10739;52.198;20.908;2022-11-12T15:11:16;43.17;;;29.15;;
21162;SDS011;10739;52.198;20.908;2022-11-12T15:13:46;43.67;;;28.58;;
21162;SDS011;10739;52.198;20.908;2022-11-12T15:16:20;42.30;;;29.58;;
21162;SDS011;10739;52.198;20.908;2022-11-12T15:21:45;44.80;;;28.80;;
21162;SDS011;10739;52.198;20.908;2022-11-12T15:24:29;40.35;;;28.00;;
21162;SDS011;10739;52.198;20.908;2022-11-12T15:27:02;39.97;;;27.55;;
21162;SDS011;10739;52.198;20.908;2022-11-12T15:35:57;47.53;;;30.00;;
21162;SDS011;10739;52.198;20.908;2022-11-12T15:38:29;44.35;;;29.95;;
21162;SDS011;10739;52.198;20.908;2022-11-12T15:41:00;47.33;;;30.80;;
21162;SDS011;10739;52.198;20.908;2022-11-12T15:43:32;58.22;;;29.73;;
21162;SDS011;10739;52.198;20.908;2022-11-12T15:46:01;50.13;;;30.05;;
21162;SDS011;10739;52.198;20.908;2022-11-12T15:48:27;44.05;;;29.58;;
21162;SDS011;10739;52.198;20.908;2022-11-12T15:50:54;53.20;;;31.00;;
21162;SDS011;10739;52.198;20.908;2022-11-12T15:53:20;44.00;;;29.65;;
21162;SDS011;10739;52.198;20.908;2022-11-12T15:55:46;44.92;;;28.92;;
21162;SDS011;10739;52.198;20.908;2022-11-12T15:58:16;39.50;;;27.65;;
21162;SDS011;10739;52.198;20.908;2022-11-12T16:00:49;50.05;;;26.35;;
21162;SDS011;10739;52.198;20.908;2022-11-12T16:03:15;44.40;;;26.92;;
21162;SDS011;10739;52.198;20.908;2022-11-12T16:05:44;44.58;;;25.67;;
21162;SDS011;10739;52.198;20.908;2022-11-12T16:08:11;41.63;;;25.17;;
21162;SDS011;10739;52.198;20.908;2022-11-12T16:10:38;43.13;;;25.55;;
21162;SDS011;10739;52.198;20.908;2022-11-12T16:13:06;41.15;;;26.95;;
21162;SDS011;10739;52.198;20.908;2022-11-12T16:15:40;37.63;;;24.73;;
21162;SDS011;10739;52.198;20.908;2022-11-12T16:18:09;39.85;;;25.08;;
21162;SDS011;10739;52.198;20.908;2022-11-12T16:20:36;34.67;;;24.15;;
21162;SDS011;10739;52.198;20.908;2022-11-12T16:23:03;40.40;;;23.98;;
21162;SDS011;10739;52.198;20.908;2022-11-12T16:25:33;34.97;;;23.42;;
21162;SDS011;10739;52.198;20.908;2022-11-12T16:28:02;39.25;;;25.20;;
21162;SDS011;10739;52.198;20.908;2022-11-12T16:30:36;34.88;;;23.42;;
21162;SDS011;10739;52.198;20.908;2022-11-12T16:33:03;37.88;;;23.42;;
21162;SDS011;10739;52.198;20.908;2022-11-12T16:35:30;33.05;;;24.27;;
21162;SDS011;10739;52.198;20.908;2022-11-12T16:37:59;36.10;;;23.80;;
21162;SDS011;10739;52.198;20.908;2022-11-12T16:40:26;30.42;;;23.13;;
21162;SDS011;10739;52.198;20.908;2022-11-12T16:42:55;33.88;;;24.77;;
21162;SDS011;10739;52.198;20.908;2022-11-12T16:45:22;40.05;;;24.98;;
21162;SDS011;10739;52.198;20.908;2022-11-12T16:47:57;36.17;;;24.05;;
21162;SDS011;10739;52.198;20.908;2022-11-12T16:50:25;36.25;;;24.33;;
21162;SDS011;10739;52.198;20.908;2022-11-12T16:52:52;38.03;;;24.83;;
21162;SDS011;10739;52.198;20.908;2022-11-12T16:55:19;36.40;;;24.35;;
21162;SDS011;10739;52.198;20.908;2022-11-12T16:57:46;35.35;;;23.70;;
21162;SDS011;10739;52.198;20.908;2022-11-12T17:00:13;35.30;;;23.17;;